createdAt,value
2023-05-25T00:01:16.216Z,99353.84
2023-05-25T00:06:20.059Z,99352.27
2023-05-25T00:11:23.478Z,99358.44
2023-05-25T00:16:25.490Z,99365.82
2023-05-25T00:21:27.542Z,99367.02
2023-05-25T00:26:29.245Z,99369.77
2023-05-25T00:31:33.538Z,99368.23
2023-05-25T00:36:35.497Z,99365.27
2023-05-25T00:41:41.591Z,99367.16
2023-05-25T00:46:52.075Z,99369.73
2023-05-25T00:51:54.265Z,99372.81
2023-05-25T00:57:06.622Z,99367.84
2023-05-25T01:02:11.073Z,99365.60
2023-05-25T01:07:18.715Z,99365.95
2023-05-25T01:12:22.832Z,99366.30
2023-05-25T01:17:26.595Z,99357.73
2023-05-25T01:22:32.600Z,99357.59
2023-05-25T01:27:46.935Z,99362.23
2023-05-25T01:32:49.487Z,99366.33
2023-05-25T01:37:52.460Z,99372.33
2023-05-25T01:42:54.337Z,99373.52
2023-05-25T01:48:30.526Z,99371.27
2023-05-25T01:53:52.655Z,99373.84
2023-05-25T01:58:57.910Z,99378.30
2023-05-25T02:04:01.192Z,99376.03
2023-05-25T02:09:03.350Z,99373.29
2023-05-25T02:14:05.717Z,99371.58
2023-05-25T02:19:07.488Z,99370.04
2023-05-25T02:24:10.313Z,99372.60
2023-05-25T02:29:12.295Z,99375.84
2023-05-25T02:34:14.252Z,99376.17
2023-05-25T02:39:16.120Z,99375.67
2023-05-25T02:44:18.125Z,99376.03
2023-05-25T02:49:20.107Z,99377.05
2023-05-25T02:54:22.397Z,99371.05
2023-05-25T02:59:25.123Z,99369.81
2023-05-25T03:04:27.288Z,99369.43
2023-05-25T03:09:29.173Z,99373.53
2023-05-25T03:14:31.222Z,99373.88
2023-05-25T03:19:38.229Z,99379.71
2023-05-25T03:24:41.813Z,99375.92
2023-05-25T03:29:44.239Z,99374.38
2023-05-25T03:34:46.174Z,99374.73
2023-05-25T03:39:49.713Z,99376.28
2023-05-25T03:44:52.478Z,99381.77
2023-05-25T03:49:54.422Z,99383.48
2023-05-25T03:54:56.774Z,99387.41
2023-05-25T03:59:59.386Z,99393.94
2023-05-25T04:05:01.332Z,99399.77
2023-05-25T04:10:04.836Z,99402.67
2023-05-25T04:15:09.548Z,99407.94
2023-05-25T04:20:22.783Z,99414.61
2023-05-25T04:25:27.947Z,99420.15
2023-05-25T04:30:31.938Z,99427.56
2023-05-25T04:35:45.565Z,99429.11
2023-05-25T04:40:48.316Z,99430.11
2023-05-25T04:45:51.502Z,99430.60
2023-05-25T04:50:55.981Z,99435.19
2023-05-25T04:55:59.023Z,99441.53
2023-05-25T05:01:00.857Z,99437.73
2023-05-25T05:06:03.513Z,99440.66
2023-05-25T05:11:06.444Z,99445.58
2023-05-25T05:16:09.026Z,99447.94
2023-05-25T05:21:10.846Z,99451.27
2023-05-25T05:26:15.120Z,99465.27
2023-05-25T05:31:18.526Z,99465.77
2023-05-25T05:36:20.890Z,99461.96
2023-05-25T05:41:23.491Z,99464.58
2023-05-25T05:46:25.554Z,99466.96
2023-05-25T05:51:27.252Z,99467.98
2023-05-25T05:56:29.070Z,99475.96
2023-05-25T06:01:31.639Z,99479.46
2023-05-25T06:06:35.101Z,99485.99
2023-05-25T06:11:39.929Z,99492.33
2023-05-25T06:16:43.701Z,99486.79
2023-05-25T06:21:45.650Z,99498.00
2023-05-25T06:26:47.411Z,99499.39
2023-05-25T06:31:50.051Z,99503.29
2023-05-25T06:36:52.863Z,99503.88
2023-05-25T06:41:55.281Z,99515.46
2023-05-25T06:47:05.956Z,99513.65
2023-05-25T06:52:07.685Z,99516.55
2023-05-25T06:57:09.363Z,99518.16
2023-05-25T07:02:11.404Z,99518.23
2023-05-25T07:07:14.177Z,99522.73
2023-05-25T07:12:15.888Z,99527.77
2023-05-25T07:17:17.571Z,99527.23
2023-05-25T07:22:19.653Z,99523.98
2023-05-25T07:27:21.346Z,99526.21
2023-05-25T07:32:23.056Z,99533.83
2023-05-25T07:37:24.885Z,99534.54
2023-05-25T07:42:33.071Z,99541.42
2023-05-25T07:47:34.885Z,99546.39
2023-05-25T07:52:38.317Z,99546.56
2023-05-25T07:57:40.389Z,99545.35
2023-05-25T08:02:42.254Z,99547.23
2023-05-25T08:07:46.088Z,99543.23
2023-05-25T08:12:50.115Z,99547.94
2023-05-25T08:17:52.333Z,99545.45
2023-05-25T08:22:54.513Z,99540.60
2023-05-25T08:27:56.300Z,99540.86
2023-05-25T08:32:58.047Z,99531.93
2023-05-25T08:37:59.869Z,99541.91
2023-05-25T08:43:01.710Z,99544.48
2023-05-25T08:48:09.384Z,99530.73
2023-05-25T08:53:12.755Z,99550.15
2023-05-25T08:58:19.545Z,99545.02
2023-05-25T09:03:22.401Z,99543.29
2023-05-25T09:08:25.079Z,99543.63
2023-05-25T09:13:27.081Z,99548.96
2023-05-25T09:18:29.030Z,99545.52
2023-05-25T09:23:31.566Z,99548.41
2023-05-25T09:28:33.278Z,99547.54
2023-05-25T09:33:40.032Z,99544.08
2023-05-25T09:38:42.168Z,99547.10
2023-05-25T09:43:54.791Z,99550.79
2023-05-25T09:49:10.621Z,99550.20
2023-05-25T09:54:12.935Z,99549.53
2023-05-25T09:59:15.134Z,99549.44
2023-05-25T10:04:16.922Z,99545.35
2023-05-25T10:09:20.269Z,99546.94
2023-05-25T10:14:30.325Z,99550.04
2023-05-25T10:19:41.389Z,99545.39
2023-05-25T10:24:45.175Z,99546.80
2023-05-25T10:29:49.733Z,99543.47
2023-05-25T10:34:52.675Z,99544.26
2023-05-25T10:39:55.612Z,99544.89
2023-05-25T10:44:57.935Z,99550.84
2023-05-25T10:50:02.476Z,99543.63
2023-05-25T10:55:15.353Z,99550.29
2023-05-25T11:00:19.428Z,99552.44
2023-05-25T11:05:31.263Z,99548.05
2023-05-25T11:10:48.099Z,99542.39
2023-05-25T11:16:26.140Z,99538.30
2023-05-25T11:21:32.223Z,99532.45
2023-05-25T11:26:35.642Z,99535.02
2023-05-25T11:31:42.235Z,99529.75
2023-05-25T11:36:45.625Z,99529.47
2023-05-25T11:41:55.401Z,99533.05
2023-05-25T11:47:04.669Z,99527.05
2023-05-25T11:52:07.534Z,99527.41
2023-05-25T11:57:20.681Z,99528.91
2023-05-25T12:02:24.030Z,99523.63
2023-05-25T12:07:27.556Z,99520.36
2023-05-25T12:12:29.269Z,99517.73
2023-05-25T12:17:31.034Z,99513.92
2023-05-25T12:22:33.544Z,99512.23
2023-05-25T12:27:35.794Z,99510.27
2023-05-25T12:33:03.863Z,99512.39
2023-05-25T12:38:14.633Z,99513.38
2023-05-25T12:43:17.626Z,99506.85
2023-05-25T12:48:26.504Z,99503.21
2023-05-25T12:53:29.137Z,99498.20
2023-05-25T12:58:30.947Z,99497.14
2023-05-25T13:03:33.173Z,99494.88
2023-05-25T13:08:34.894Z,99488.59
2023-05-25T13:13:37.461Z,99488.98
2023-05-25T13:18:40.106Z,99491.59
2023-05-25T13:23:41.828Z,99492.23
2023-05-25T13:28:43.541Z,99486.06
2023-05-25T13:33:45.647Z,99487.67
2023-05-25T13:38:47.380Z,99489.50
2023-05-25T13:43:49.600Z,99486.36
2023-05-25T13:48:51.307Z,99487.14
2023-05-25T13:53:53.626Z,99488.89
2023-05-25T13:58:55.652Z,99486.10
2023-05-25T14:03:59.925Z,99489.89
2023-05-25T14:09:01.794Z,99480.71
2023-05-25T14:14:13.683Z,99481.39
2023-05-25T14:19:18.655Z,99473.30
2023-05-25T14:24:20.386Z,99467.22
2023-05-25T14:29:22.087Z,99467.48
2023-05-25T14:34:23.732Z,99460.17
2023-05-25T14:39:25.902Z,99460.45
2023-05-25T14:44:28.394Z,99461.34
2023-05-25T14:49:30.060Z,99468.68
2023-05-25T14:54:31.778Z,99465.34
2023-05-25T14:59:33.633Z,99463.94
2023-05-25T15:04:35.725Z,99459.63
2023-05-25T15:09:42.279Z,99460.08
2023-05-25T15:14:43.937Z,99452.78
2023-05-25T15:19:45.863Z,99453.34
2023-05-25T15:24:47.617Z,99452.41
2023-05-25T15:29:49.262Z,99453.16
2023-05-25T15:34:50.960Z,99452.98
2023-05-25T15:39:52.690Z,99448.89
2023-05-25T15:44:54.406Z,99446.36
2023-05-25T15:49:56.150Z,99442.64
2023-05-25T15:54:58.171Z,99441.61
2023-05-25T15:59:59.824Z,99444.56
2023-05-25T16:05:01.653Z,99446.48
2023-05-25T16:10:03.684Z,99439.85
2023-05-25T16:15:06.498Z,99435.96
2023-05-25T16:20:09.343Z,99440.56
2023-05-25T16:25:11.492Z,99439.32
2023-05-25T16:30:13.843Z,99439.27
2023-05-25T16:35:15.799Z,99437.87
2023-05-25T16:40:17.635Z,99434.53
2023-05-25T16:45:21.079Z,99429.77
2023-05-25T16:50:22.864Z,99427.64
2023-05-25T16:55:24.680Z,99434.41
2023-05-25T17:00:26.385Z,99431.83
2023-05-25T17:05:28.114Z,99426.24
2023-05-25T17:10:29.789Z,99428.33
2023-05-25T17:15:31.659Z,99424.80
2023-05-25T17:20:33.396Z,99424.52
2023-05-25T17:25:35.103Z,99426.10
2023-05-25T17:30:37.125Z,99425.27
2023-05-25T17:35:38.868Z,99423.19
2023-05-25T17:40:40.594Z,99419.60
2023-05-25T17:45:42.385Z,99425.48
2023-05-25T17:50:44.558Z,99430.55
2023-05-25T17:55:46.684Z,99430.42
2023-05-25T18:00:49.105Z,99436.67
2023-05-25T18:05:51.214Z,99433.59
2023-05-25T18:10:53.228Z,99428.31
2023-05-25T18:15:55.017Z,99430.27
2023-05-25T18:20:56.674Z,99435.15
2023-05-25T18:25:58.614Z,99440.03
2023-05-25T18:31:00.365Z,99448.31
2023-05-25T18:36:02.227Z,99446.45
2023-05-25T18:41:04.170Z,99451.48
2023-05-25T18:46:05.925Z,99456.88
2023-05-25T18:51:07.651Z,99463.11
2023-05-25T18:56:09.334Z,99462.30
2023-05-25T19:01:11.055Z,99460.76
2023-05-25T19:06:12.739Z,99467.29
2023-05-25T19:11:15.577Z,99466.23
2023-05-25T19:16:17.450Z,99467.79
2023-05-25T19:21:19.369Z,99465.91
2023-05-25T19:26:21.042Z,99463.20
2023-05-25T19:31:23.586Z,99465.62
2023-05-25T19:36:25.809Z,99463.05
2023-05-25T19:41:27.736Z,99463.59
2023-05-25T19:46:29.752Z,99468.77
2023-05-25T19:51:32.974Z,99463.80
2023-05-25T19:56:34.992Z,99464.48
2023-05-25T20:01:36.775Z,99462.80
2023-05-25T20:06:38.716Z,99458.84
2023-05-25T20:11:41.605Z,99459.86
2023-05-25T20:16:43.510Z,99459.20
2023-05-25T20:21:45.335Z,99462.48
2023-05-25T20:26:47.051Z,99467.82
2023-05-25T20:31:49.508Z,99464.89
2023-05-25T20:36:51.228Z,99466.44
2023-05-25T20:41:53.216Z,99463.69
2023-05-25T20:46:55.487Z,99464.89
2023-05-25T20:51:57.181Z,99463.17
2023-05-25T20:57:00.977Z,99458.87
2023-05-25T21:02:03.935Z,99461.98
2023-05-25T21:07:05.782Z,99465.57
2023-05-25T21:12:08.357Z,99465.91
2023-05-25T21:17:10.839Z,99464.20
2023-05-25T21:22:13.452Z,99465.40
2023-05-25T21:27:15.165Z,99465.74
2023-05-25T21:32:18.250Z,99467.29
2023-05-25T21:37:20.189Z,99471.08
2023-05-25T21:42:21.906Z,99465.58
2023-05-25T21:47:27.403Z,99466.61
2023-05-25T21:52:30.667Z,99466.61
2023-05-25T21:57:33.747Z,99468.33
2023-05-25T22:02:35.513Z,99466.45
2023-05-25T22:07:37.261Z,99469.02
2023-05-25T22:12:38.991Z,99465.91
2023-05-25T22:17:40.764Z,99470.55
2023-05-25T22:22:42.501Z,99473.48
2023-05-25T22:27:44.372Z,99474.69
2023-05-25T22:32:46.101Z,99473.32
2023-05-25T22:37:48.595Z,99469.18
2023-05-25T22:42:50.598Z,99470.05
2023-05-25T22:47:52.437Z,99471.08
2023-05-25T22:52:54.225Z,99473.14
2023-05-25T22:57:56.226Z,99472.11
2023-05-25T23:02:58.013Z,99468.16
2023-05-25T23:07:59.905Z,99466.27
2023-05-25T23:13:07.286Z,99463.52
2023-05-25T23:18:09.078Z,99458.88
2023-05-25T23:23:10.984Z,99459.74
2023-05-25T23:28:12.719Z,99461.63
2023-05-25T23:33:15.099Z,99459.23
2023-05-25T23:38:16.804Z,99460.95
2023-05-25T23:43:19.304Z,99453.04
2023-05-25T23:48:21.463Z,99453.88
2023-05-25T23:53:24.422Z,99458.70
2023-05-25T23:58:26.109Z,99454.73
